Aviation Digital Data Service (ADDS)

Output produced by METARs form (1103 UTC 17 June 2019)
found at http://www.aviationweather.gov/metar/data/
 
METAR text: YSNF 171030Z AUTO 07008KT 9999 -SHRA OVC056 16/14 Q1018 RF00.0/000.0
Conditions at: YSNF (NORFOLK ISLAND A, AU) observed 1030 UTC 17 June 2019
Temperature: 16.0°C (61°F)
Dewpoint: 14.0°C (57°F) [RH = 88%]
Pressure (altimeter): 30.06 inches Hg (1018.0 mb)
Winds: from the ENE (70 degrees) at 9 MPH (8 knots; 4.1 m/s)
Visibility: 6 or more miles (10+ km)
Ceiling: 5600 feet AGL
Clouds: overcast cloud deck at 5600 feet AGL
Weather: -SHRA  (light rain showers)

METAR text: YSNF 171000Z AUTO 05009KT 9999 // SCT037 OVC056 17/13 Q1019
Conditions at: YSNF (NORFOLK ISLAND A, AU) observed 1000 UTC 17 June 2019
Temperature: 17.0°C (63°F)
Dewpoint: 13.0°C (55°F) [RH = 77%]
Pressure (altimeter): 30.09 inches Hg (1019.0 mb)
Winds: from the NE (50 degrees) at 10 MPH (9 knots; 4.6 m/s)
Visibility: 6 or more miles (10+ km)
Ceiling: 5600 feet AGL
Clouds: scattered clouds at 3700 feet AGL
overcast cloud deck at 5600 feet AGL
Weather: no significant weather observed at this time

METAR text: YSNF 170930Z AUTO 05009KT 9999 -SHRA OVC057 18/11 Q1019 RF00.0/000.0
Conditions at: YSNF (NORFOLK ISLAND A, AU) observed 0930 UTC 17 June 2019
Temperature: 18.0°C (64°F)
Dewpoint: 11.0°C (52°F) [RH = 64%]
Pressure (altimeter): 30.09 inches Hg (1019.0 mb)
Winds: from the NE (50 degrees) at 10 MPH (9 knots; 4.6 m/s)
Visibility: 6 or more miles (10+ km)
Ceiling: 5700 feet AGL
Clouds: overcast cloud deck at 5700 feet AGL
Weather: -SHRA  (light rain showers)

METAR text: YSNF 170900Z AUTO 06012KT 9999 -SHRA OVC059 18/12 Q1018 RF00.0/000.0
Conditions at: YSNF (NORFOLK ISLAND A, AU) observed 0900 UTC 17 June 2019
Temperature: 18.0°C (64°F)
Dewpoint: 12.0°C (54°F) [RH = 68%]
Pressure (altimeter): 30.06 inches Hg (1018.0 mb)
Winds: from the ENE (60 degrees) at 14 MPH (12 knots; 6.2 m/s)
Visibility: 6 or more miles (10+ km)
Ceiling: 5900 feet AGL
Clouds: overcast cloud deck at 5900 feet AGL
Weather: -SHRA  (light rain showers)

METAR text: YSNF 170830Z AUTO 06011KT 9999 // BKN058 OVC066 18/11 Q1018
Conditions at: YSNF (NORFOLK ISLAND A, AU) observed 0830 UTC 17 June 2019
Temperature: 18.0°C (64°F)
Dewpoint: 11.0°C (52°F) [RH = 64%]
Pressure (altimeter): 30.06 inches Hg (1018.0 mb)
Winds: from the ENE (60 degrees) at 13 MPH (11 knots; 5.7 m/s)
Visibility: 6 or more miles (10+ km)
Ceiling: 5800 feet AGL
Clouds: broken clouds at 5800 feet AGL
overcast cloud deck at 6600 feet AGL
Weather: no significant weather observed at this time

METAR text: YSNF 170800Z AUTO 06011KT 9999 // OVC062 18/11 Q1018 RF00.0/000.0
Conditions at: YSNF (NORFOLK ISLAND A, AU) observed 0800 UTC 17 June 2019
Temperature: 18.0°C (64°F)
Dewpoint: 11.0°C (52°F) [RH = 64%]
Pressure (altimeter): 30.06 inches Hg (1018.0 mb)
Winds: from the ENE (60 degrees) at 13 MPH (11 knots; 5.7 m/s)
Visibility: 6 or more miles (10+ km)
Ceiling: 6200 feet AGL
Clouds: overcast cloud deck at 6200 feet AGL
Weather: no significant weather observed at this time

METAR text: YSNF 170730Z AUTO 07011KT 9999 // SCT027 SCT033 OVC058 18/12 Q1018
Conditions at: YSNF (NORFOLK ISLAND A, AU) observed 0730 UTC 17 June 2019
Temperature: 18.0°C (64°F)
Dewpoint: 12.0°C (54°F) [RH = 68%]
Pressure (altimeter): 30.06 inches Hg (1018.0 mb)
Winds: from the ENE (70 degrees) at 13 MPH (11 knots; 5.7 m/s)
Visibility: 6 or more miles (10+ km)
Ceiling: 5800 feet AGL
Clouds: scattered clouds at 2700 feet AGL
scattered clouds at 3300 feet AGL
overcast cloud deck at 5800 feet AGL
Weather: no significant weather observed at this time

METAR text: YSNF 170700Z AUTO 07013KT 9999 // SCT023 BKN027 OVC060 18/13 Q1018
Conditions at: YSNF (NORFOLK ISLAND A, AU) observed 0700 UTC 17 June 2019
Temperature: 18.0°C (64°F)
Dewpoint: 13.0°C (55°F) [RH = 73%]
Pressure (altimeter): 30.06 inches Hg (1018.0 mb)
Winds: from the ENE (70 degrees) at 15 MPH (13 knots; 6.7 m/s)
Visibility: 6 or more miles (10+ km)
Ceiling: 2700 feet AGL
Clouds: scattered clouds at 2300 feet AGL
broken clouds at 2700 feet AGL
overcast cloud deck at 6000 feet AGL
Weather: no significant weather observed at this time

METAR text: YSNF 170630Z AUTO 08012KT 9999 // SCT030 BKN060 17/13 Q1018
Conditions at: YSNF (NORFOLK ISLAND A, AU) observed 0630 UTC 17 June 2019
Temperature: 17.0°C (63°F)
Dewpoint: 13.0°C (55°F) [RH = 77%]
Pressure (altimeter): 30.06 inches Hg (1018.0 mb)
Winds: from the E (80 degrees) at 14 MPH (12 knots; 6.2 m/s)
Visibility: 6 or more miles (10+ km)
Ceiling: 6000 feet AGL
Clouds: scattered clouds at 3000 feet AGL
broken clouds at 6000 feet AGL
Weather: no significant weather observed at this time

METAR text: YSNF 170600Z AUTO 08011KT 9999 // NCD 17/13 Q1018 RF00.0/000.0
Conditions at: YSNF (NORFOLK ISLAND A, AU) observed 0600 UTC 17 June 2019
Temperature: 17.0°C (63°F)
Dewpoint: 13.0°C (55°F) [RH = 77%]
Pressure (altimeter): 30.06 inches Hg (1018.0 mb)
Winds: from the E (80 degrees) at 13 MPH (11 knots; 5.7 m/s)
Visibility: 6 or more miles (10+ km)
Ceiling: at least 12,000 feet AGL
Clouds: sky clear below 12,000 feet AGL
Weather: no significant weather observed at this time

METAR text: YSNF 170530Z AUTO 07012KT 9999 // SCT026 18/12 Q1018 RF00.0/000.0
Conditions at: YSNF (NORFOLK ISLAND A, AU) observed 0530 UTC 17 June 2019
Temperature: 18.0°C (64°F)
Dewpoint: 12.0°C (54°F) [RH = 68%]
Pressure (altimeter): 30.06 inches Hg (1018.0 mb)
Winds: from the ENE (70 degrees) at 14 MPH (12 knots; 6.2 m/s)
Visibility: 6 or more miles (10+ km)
Ceiling: at least 12,000 feet AGL
Clouds: scattered clouds at 2600 feet AGL
Weather: no significant weather observed at this time

METAR text: YSNF 170500Z AUTO 07012KT 9999 // SCT026 SCT033 18/13 Q1018
Conditions at: YSNF (NORFOLK ISLAND A, AU) observed 0500 UTC 17 June 2019
Temperature: 18.0°C (64°F)
Dewpoint: 13.0°C (55°F) [RH = 73%]
Pressure (altimeter): 30.06 inches Hg (1018.0 mb)
Winds: from the ENE (70 degrees) at 14 MPH (12 knots; 6.2 m/s)
Visibility: 6 or more miles (10+ km)
Ceiling: at least 12,000 feet AGL
Clouds: scattered clouds at 2600 feet AGL
scattered clouds at 3300 feet AGL
Weather: no significant weather observed at this time

METAR text: YSNF 170430Z AUTO 08013KT 9999 // BKN028 BKN032 19/12 Q1018
Conditions at: YSNF (NORFOLK ISLAND A, AU) observed 0430 UTC 17 June 2019
Temperature: 19.0°C (66°F)
Dewpoint: 12.0°C (54°F) [RH = 64%]
Pressure (altimeter): 30.06 inches Hg (1018.0 mb)
Winds: from the E (80 degrees) at 15 MPH (13 knots; 6.7 m/s)
Visibility: 6 or more miles (10+ km)
Ceiling: 2800 feet AGL
Clouds: broken clouds at 2800 feet AGL
broken clouds at 3200 feet AGL
Weather: no significant weather observed at this time

METAR text: YSNF 170400Z AUTO 08013KT 9999 // BKN028 19/13 Q1018 RF00.0/000.0
Conditions at: YSNF (NORFOLK ISLAND A, AU) observed 0400 UTC 17 June 2019
Temperature: 19.0°C (66°F)
Dewpoint: 13.0°C (55°F) [RH = 68%]
Pressure (altimeter): 30.06 inches Hg (1018.0 mb)
Winds: from the E (80 degrees) at 15 MPH (13 knots; 6.7 m/s)
Visibility: 6 or more miles (10+ km)
Ceiling: 2800 feet AGL
Clouds: broken clouds at 2800 feet AGL
Weather: no significant weather observed at this time

METAR text: YSNF 170330Z AUTO 07011KT 9999 // SCT028 19/12 Q1018 RF00.0/000.0
Conditions at: YSNF (NORFOLK ISLAND A, AU) observed 0330 UTC 17 June 2019
Temperature: 19.0°C (66°F)
Dewpoint: 12.0°C (54°F) [RH = 64%]
Pressure (altimeter): 30.06 inches Hg (1018.0 mb)
Winds: from the ENE (70 degrees) at 13 MPH (11 knots; 5.7 m/s)
Visibility: 6 or more miles (10+ km)
Ceiling: at least 12,000 feet AGL
Clouds: scattered clouds at 2800 feet AGL
Weather: no significant weather observed at this time

METAR text: YSNF 170300Z AUTO 08013KT 9999 // SCT028 19/12 Q1018 RF00.0/000.0
Conditions at: YSNF (NORFOLK ISLAND A, AU) observed 0300 UTC 17 June 2019
Temperature: 19.0°C (66°F)
Dewpoint: 12.0°C (54°F) [RH = 64%]
Pressure (altimeter): 30.06 inches Hg (1018.0 mb)
Winds: from the E (80 degrees) at 15 MPH (13 knots; 6.7 m/s)
Visibility: 6 or more miles (10+ km)
Ceiling: at least 12,000 feet AGL
Clouds: scattered clouds at 2800 feet AGL
Weather: no significant weather observed at this time

METAR text: YSNF 170230Z AUTO 07013KT 9999 // NCD 19/12 Q1018 RF00.0/000.0
Conditions at: YSNF (NORFOLK ISLAND A, AU) observed 0230 UTC 17 June 2019
Temperature: 19.0°C (66°F)
Dewpoint: 12.0°C (54°F) [RH = 64%]
Pressure (altimeter): 30.06 inches Hg (1018.0 mb)
Winds: from the ENE (70 degrees) at 15 MPH (13 knots; 6.7 m/s)
Visibility: 6 or more miles (10+ km)
Ceiling: at least 12,000 feet AGL
Clouds: sky clear below 12,000 feet AGL
Weather: no significant weather observed at this time

METAR text: YSNF 170200Z AUTO 06012KT 9999 // SCT030 19/11 Q1019 RF00.0/000.0
Conditions at: YSNF (NORFOLK ISLAND A, AU) observed 0200 UTC 17 June 2019
Temperature: 19.0°C (66°F)
Dewpoint: 11.0°C (52°F) [RH = 60%]
Pressure (altimeter): 30.09 inches Hg (1019.0 mb)
Winds: from the ENE (60 degrees) at 14 MPH (12 knots; 6.2 m/s)
Visibility: 6 or more miles (10+ km)
Ceiling: at least 12,000 feet AGL
Clouds: scattered clouds at 3000 feet AGL
Weather: no significant weather observed at this time

METAR text: YSNF 170130Z AUTO 06013KT 9999 // SCT030 19/11 Q1019 RF00.0/000.0
Conditions at: YSNF (NORFOLK ISLAND A, AU) observed 0130 UTC 17 June 2019
Temperature: 19.0°C (66°F)
Dewpoint: 11.0°C (52°F) [RH = 60%]
Pressure (altimeter): 30.09 inches Hg (1019.0 mb)
Winds: from the ENE (60 degrees) at 15 MPH (13 knots; 6.7 m/s)
Visibility: 6 or more miles (10+ km)
Ceiling: at least 12,000 feet AGL
Clouds: scattered clouds at 3000 feet AGL
Weather: no significant weather observed at this time

METAR text: YSNF 170100Z AUTO 06012KT //// // NCD 19/11 Q1020 RF00.0/000.0 PRESENT WEATHER SENSOR US
Conditions at: YSNF (NORFOLK ISLAND A, AU) observed 0100 UTC 17 June 2019
Temperature: 19.0°C (66°F)
Dewpoint: 11.0°C (52°F) [RH = 60%]
Pressure (altimeter): 30.12 inches Hg (1020.0 mb)
Winds: from the ENE (60 degrees) at 14 MPH (12 knots; 6.2 m/s)
Visibility: missing
Ceiling: at least 12,000 feet AGL
Clouds: sky clear below 12,000 feet AGL
Weather: no significant weather observed at this time

METAR text: YSNF 170030Z AUTO 06012KT //// // NCD 20/11 Q1020 RF00.0/000.0 PRESENT WEATHER SENSOR US
Conditions at: YSNF (NORFOLK ISLAND A, AU) observed 0030 UTC 17 June 2019
Temperature: 20.0°C (68°F)
Dewpoint: 11.0°C (52°F) [RH = 56%]
Pressure (altimeter): 30.12 inches Hg (1020.0 mb)
Winds: from the ENE (60 degrees) at 14 MPH (12 knots; 6.2 m/s)
Visibility: missing
Ceiling: at least 12,000 feet AGL
Clouds: sky clear below 12,000 feet AGL
Weather: no significant weather observed at this time

METAR text: YSNF 170000Z AUTO 06011KT //// // NCD 19/10 Q1021 RF00.0/000.0 PRESENT WEATHER SENSOR US
Conditions at: YSNF (NORFOLK ISLAND A, AU) observed 0000 UTC 17 June 2019
Temperature: 19.0°C (66°F)
Dewpoint: 10.0°C (50°F) [RH = 56%]
Pressure (altimeter): 30.15 inches Hg (1021.0 mb)
Winds: from the ENE (60 degrees) at 13 MPH (11 knots; 5.7 m/s)
Visibility: missing
Ceiling: at least 12,000 feet AGL
Clouds: sky clear below 12,000 feet AGL
Weather: no significant weather observed at this time

METAR text: YSNF 162330Z AUTO 07014KT //// // NCD 19/11 Q1021 RF00.0/000.0 PRESENT WEATHER SENSOR US
Conditions at: YSNF (NORFOLK ISLAND A, AU) observed 2330 UTC 16 June 2019
Temperature: 19.0°C (66°F)
Dewpoint: 11.0°C (52°F) [RH = 60%]
Pressure (altimeter): 30.15 inches Hg (1021.0 mb)
Winds: from the ENE (70 degrees) at 16 MPH (14 knots; 7.2 m/s)
Visibility: missing
Ceiling: at least 12,000 feet AGL
Clouds: sky clear below 12,000 feet AGL
Weather: no significant weather observed at this time

METAR text: YSNF 162300Z AUTO 07012KT //// // NCD 19/10 Q1021 RF00.0/000.0 PRESENT WEATHER SENSOR US
Conditions at: YSNF (NORFOLK ISLAND A, AU) observed 2300 UTC 16 June 2019
Temperature: 19.0°C (66°F)
Dewpoint: 10.0°C (50°F) [RH = 56%]
Pressure (altimeter): 30.15 inches Hg (1021.0 mb)
Winds: from the ENE (70 degrees) at 14 MPH (12 knots; 6.2 m/s)
Visibility: missing
Ceiling: at least 12,000 feet AGL
Clouds: sky clear below 12,000 feet AGL
Weather: no significant weather observed at this time

METAR text: YSNF 162230Z AUTO 07013KT //// // NCD 19/10 Q1021 RF00.0/000.0 PRESENT WEATHER SENSOR US
Conditions at: YSNF (NORFOLK ISLAND A, AU) observed 2230 UTC 16 June 2019
Temperature: 19.0°C (66°F)
Dewpoint: 10.0°C (50°F) [RH = 56%]
Pressure (altimeter): 30.15 inches Hg (1021.0 mb)
Winds: from the ENE (70 degrees) at 15 MPH (13 knots; 6.7 m/s)
Visibility: missing
Ceiling: at least 12,000 feet AGL
Clouds: sky clear below 12,000 feet AGL
Weather: no significant weather observed at this time

METAR text: YSNF 162200Z AUTO 07012KT //// // NCD 18/10 Q1021
Conditions at: YSNF (NORFOLK ISLAND A, AU) observed 2200 UTC 16 June 2019
Temperature: 18.0°C (64°F)
Dewpoint: 10.0°C (50°F) [RH = 59%]
Pressure (altimeter): 30.15 inches Hg (1021.0 mb)
Winds: from the ENE (70 degrees) at 14 MPH (12 knots; 6.2 m/s)
Visibility: missing
Ceiling: at least 12,000 feet AGL
Clouds: sky clear below 12,000 feet AGL
Weather: no significant weather observed at this time

METAR text: YSNF 162130Z AUTO 07011KT 9999 // NCD 18/10 Q1021 RF00.0/000.0
Conditions at: YSNF (NORFOLK ISLAND A, AU) observed 2130 UTC 16 June 2019
Temperature: 18.0°C (64°F)
Dewpoint: 10.0°C (50°F) [RH = 59%]
Pressure (altimeter): 30.15 inches Hg (1021.0 mb)
Winds: from the ENE (70 degrees) at 13 MPH (11 knots; 5.7 m/s)
Visibility: 6 or more miles (10+ km)
Ceiling: at least 12,000 feet AGL
Clouds: sky clear below 12,000 feet AGL
Weather: no significant weather observed at this time

METAR text: YSNF 162100Z AUTO 09010KT 9999 // NCD 17/10 Q1021
Conditions at: YSNF (NORFOLK ISLAND A, AU) observed 2100 UTC 16 June 2019
Temperature: 17.0°C (63°F)
Dewpoint: 10.0°C (50°F) [RH = 63%]
Pressure (altimeter): 30.15 inches Hg (1021.0 mb)
Winds: from the E (90 degrees) at 12 MPH (10 knots; 5.1 m/s)
Visibility: 6 or more miles (10+ km)
Ceiling: at least 12,000 feet AGL
Clouds: sky clear below 12,000 feet AGL
Weather: no significant weather observed at this time

METAR text: YSNF 162030Z AUTO 08009KT 9999 // NCD 16/10 Q1021 RF00.0/000.0
Conditions at: YSNF (NORFOLK ISLAND A, AU) observed 2030 UTC 16 June 2019
Temperature: 16.0°C (61°F)
Dewpoint: 10.0°C (50°F) [RH = 68%]
Pressure (altimeter): 30.15 inches Hg (1021.0 mb)
Winds: from the E (80 degrees) at 10 MPH (9 knots; 4.6 m/s)
Visibility: 6 or more miles (10+ km)
Ceiling: at least 12,000 feet AGL
Clouds: sky clear below 12,000 feet AGL
Weather: no significant weather observed at this time

METAR text: YSNF 162000Z AUTO 08010KT 9999 // NCD 15/09 Q1021
Conditions at: YSNF (NORFOLK ISLAND A, AU) observed 2000 UTC 16 June 2019
Temperature: 15.0°C (59°F)
Dewpoint: 9.0°C (48°F) [RH = 67%]
Pressure (altimeter): 30.15 inches Hg (1021.0 mb)
Winds: from the E (80 degrees) at 12 MPH (10 knots; 5.1 m/s)
Visibility: 6 or more miles (10+ km)
Ceiling: at least 12,000 feet AGL
Clouds: sky clear below 12,000 feet AGL
Weather: no significant weather observed at this time

METAR text: YSNF 161930Z AUTO 09009KT 9999 // SCT031 15/10 Q1021 RF00.0/000.0
Conditions at: YSNF (NORFOLK ISLAND A, AU) observed 1930 UTC 16 June 2019
Temperature: 15.0°C (59°F)
Dewpoint: 10.0°C (50°F) [RH = 72%]
Pressure (altimeter): 30.15 inches Hg (1021.0 mb)
Winds: from the E (90 degrees) at 10 MPH (9 knots; 4.6 m/s)
Visibility: 6 or more miles (10+ km)
Ceiling: at least 12,000 feet AGL
Clouds: scattered clouds at 3100 feet AGL
Weather: no significant weather observed at this time

METAR text: YSNF 161900Z AUTO 08009KT 9999 // SCT031 15/11 Q1020 RF00.0/000.0
Conditions at: YSNF (NORFOLK ISLAND A, AU) observed 1900 UTC 16 June 2019
Temperature: 15.0°C (59°F)
Dewpoint: 11.0°C (52°F) [RH = 77%]
Pressure (altimeter): 30.12 inches Hg (1020.0 mb)
Winds: from the E (80 degrees) at 10 MPH (9 knots; 4.6 m/s)
Visibility: 6 or more miles (10+ km)
Ceiling: at least 12,000 feet AGL
Clouds: scattered clouds at 3100 feet AGL
Weather: no significant weather observed at this time

METAR text: YSNF 161830Z AUTO 09010KT 9999 // NCD 16/11 Q1020 RF00.0/000.0
Conditions at: YSNF (NORFOLK ISLAND A, AU) observed 1830 UTC 16 June 2019
Temperature: 16.0°C (61°F)
Dewpoint: 11.0°C (52°F) [RH = 72%]
Pressure (altimeter): 30.12 inches Hg (1020.0 mb)
Winds: from the E (90 degrees) at 12 MPH (10 knots; 5.1 m/s)
Visibility: 6 or more miles (10+ km)
Ceiling: at least 12,000 feet AGL
Clouds: sky clear below 12,000 feet AGL
Weather: no significant weather observed at this time

METAR text: YSNF 161800Z AUTO 09008KT 9999 // NCD 15/10 Q1020 RF00.0/000.0
Conditions at: YSNF (NORFOLK ISLAND A, AU) observed 1800 UTC 16 June 2019
Temperature: 15.0°C (59°F)
Dewpoint: 10.0°C (50°F) [RH = 72%]
Pressure (altimeter): 30.12 inches Hg (1020.0 mb)
Winds: from the E (90 degrees) at 9 MPH (8 knots; 4.1 m/s)
Visibility: 6 or more miles (10+ km)
Ceiling: at least 12,000 feet AGL
Clouds: sky clear below 12,000 feet AGL
Weather: no significant weather observed at this time

METAR text: YSNF 161730Z AUTO 09009KT 9999 // NCD 15/10 Q1020 RF00.0/000.0
Conditions at: YSNF (NORFOLK ISLAND A, AU) observed 1730 UTC 16 June 2019
Temperature: 15.0°C (59°F)
Dewpoint: 10.0°C (50°F) [RH = 72%]
Pressure (altimeter): 30.12 inches Hg (1020.0 mb)
Winds: from the E (90 degrees) at 10 MPH (9 knots; 4.6 m/s)
Visibility: 6 or more miles (10+ km)
Ceiling: at least 12,000 feet AGL
Clouds: sky clear below 12,000 feet AGL
Weather: no significant weather observed at this time

METAR text: YSNF 161700Z AUTO 09009KT 9999 // NCD 15/09 Q1020 RF00.0/000.0
Conditions at: YSNF (NORFOLK ISLAND A, AU) observed 1700 UTC 16 June 2019
Temperature: 15.0°C (59°F)
Dewpoint: 9.0°C (48°F) [RH = 67%]
Pressure (altimeter): 30.12 inches Hg (1020.0 mb)
Winds: from the E (90 degrees) at 10 MPH (9 knots; 4.6 m/s)
Visibility: 6 or more miles (10+ km)
Ceiling: at least 12,000 feet AGL
Clouds: sky clear below 12,000 feet AGL
Weather: no significant weather observed at this time

METAR text: YSNF 161630Z AUTO 09009KT 9999 // NCD 15/09 Q1020 RF00.0/000.0
Conditions at: YSNF (NORFOLK ISLAND A, AU) observed 1630 UTC 16 June 2019
Temperature: 15.0°C (59°F)
Dewpoint: 9.0°C (48°F) [RH = 67%]
Pressure (altimeter): 30.12 inches Hg (1020.0 mb)
Winds: from the E (90 degrees) at 10 MPH (9 knots; 4.6 m/s)
Visibility: 6 or more miles (10+ km)
Ceiling: at least 12,000 feet AGL
Clouds: sky clear below 12,000 feet AGL
Weather: no significant weather observed at this time

METAR text: YSNF 161600Z AUTO 09009KT 9999 // NCD 15/09 Q1020 RF00.0/000.0
Conditions at: YSNF (NORFOLK ISLAND A, AU) observed 1600 UTC 16 June 2019
Temperature: 15.0°C (59°F)
Dewpoint: 9.0°C (48°F) [RH = 67%]
Pressure (altimeter): 30.12 inches Hg (1020.0 mb)
Winds: from the E (90 degrees) at 10 MPH (9 knots; 4.6 m/s)
Visibility: 6 or more miles (10+ km)
Ceiling: at least 12,000 feet AGL
Clouds: sky clear below 12,000 feet AGL
Weather: no significant weather observed at this time

METAR text: YSNF 161530Z AUTO 09009KT 9999 // NCD 15/09 Q1020 RF00.0/000.0
Conditions at: YSNF (NORFOLK ISLAND A, AU) observed 1530 UTC 16 June 2019
Temperature: 15.0°C (59°F)
Dewpoint: 9.0°C (48°F) [RH = 67%]
Pressure (altimeter): 30.12 inches Hg (1020.0 mb)
Winds: from the E (90 degrees) at 10 MPH (9 knots; 4.6 m/s)
Visibility: 6 or more miles (10+ km)
Ceiling: at least 12,000 feet AGL
Clouds: sky clear below 12,000 feet AGL
Weather: no significant weather observed at this time

METAR text: YSNF 161500Z AUTO 09009KT 9999 // NCD 15/09 Q1021 RF00.0/000.0
Conditions at: YSNF (NORFOLK ISLAND A, AU) observed 1500 UTC 16 June 2019
Temperature: 15.0°C (59°F)
Dewpoint: 9.0°C (48°F) [RH = 67%]
Pressure (altimeter): 30.15 inches Hg (1021.0 mb)
Winds: from the E (90 degrees) at 10 MPH (9 knots; 4.6 m/s)
Visibility: 6 or more miles (10+ km)
Ceiling: at least 12,000 feet AGL
Clouds: sky clear below 12,000 feet AGL
Weather: no significant weather observed at this time

METAR text: YSNF 161430Z AUTO 09008KT 9999 // NCD 14/09 Q1021 RF00.0/000.0
Conditions at: YSNF (NORFOLK ISLAND A, AU) observed 1430 UTC 16 June 2019
Temperature: 14.0°C (57°F)
Dewpoint: 9.0°C (48°F) [RH = 72%]
Pressure (altimeter): 30.15 inches Hg (1021.0 mb)
Winds: from the E (90 degrees) at 9 MPH (8 knots; 4.1 m/s)
Visibility: 6 or more miles (10+ km)
Ceiling: at least 12,000 feet AGL
Clouds: sky clear below 12,000 feet AGL
Weather: no significant weather observed at this time

METAR text: YSNF 161400Z AUTO 09007KT 9999 // NCD 15/10 Q1021
Conditions at: YSNF (NORFOLK ISLAND A, AU) observed 1400 UTC 16 June 2019
Temperature: 15.0°C (59°F)
Dewpoint: 10.0°C (50°F) [RH = 72%]
Pressure (altimeter): 30.15 inches Hg (1021.0 mb)
Winds: from the E (90 degrees) at 8 MPH (7 knots; 3.6 m/s)
Visibility: 6 or more miles (10+ km)
Ceiling: at least 12,000 feet AGL
Clouds: sky clear below 12,000 feet AGL
Weather: no significant weather observed at this time

METAR text: YSNF 161330Z AUTO 10007KT 9999 // NCD 15/10 Q1022 RF00.0/000.0
Conditions at: YSNF (NORFOLK ISLAND A, AU) observed 1330 UTC 16 June 2019
Temperature: 15.0°C (59°F)
Dewpoint: 10.0°C (50°F) [RH = 72%]
Pressure (altimeter): 30.18 inches Hg (1022.0 mb)
Winds: from the E (100 degrees) at 8 MPH (7 knots; 3.6 m/s)
Visibility: 6 or more miles (10+ km)
Ceiling: at least 12,000 feet AGL
Clouds: sky clear below 12,000 feet AGL
Weather: no significant weather observed at this time

METAR text: YSNF 161300Z AUTO 09007KT 9999 // NCD 15/10 Q1022
Conditions at: YSNF (NORFOLK ISLAND A, AU) observed 1300 UTC 16 June 2019
Temperature: 15.0°C (59°F)
Dewpoint: 10.0°C (50°F) [RH = 72%]
Pressure (altimeter): 30.18 inches Hg (1022.0 mb)
Winds: from the E (90 degrees) at 8 MPH (7 knots; 3.6 m/s)
Visibility: 6 or more miles (10+ km)
Ceiling: at least 12,000 feet AGL
Clouds: sky clear below 12,000 feet AGL
Weather: no significant weather observed at this time

METAR text: YSNF 161230Z AUTO 10006KT 9999 // BKN031 15/10 Q1022 RF00.0/000.0
Conditions at: YSNF (NORFOLK ISLAND A, AU) observed 1230 UTC 16 June 2019
Temperature: 15.0°C (59°F)
Dewpoint: 10.0°C (50°F) [RH = 72%]
Pressure (altimeter): 30.18 inches Hg (1022.0 mb)
Winds: from the E (100 degrees) at 7 MPH (6 knots; 3.1 m/s)
Visibility: 6 or more miles (10+ km)
Ceiling: 3100 feet AGL
Clouds: broken clouds at 3100 feet AGL
Weather: no significant weather observed at this time

METAR text: YSNF 161200Z AUTO 08005KT 9999 // SCT031 14/10 Q1022
Conditions at: YSNF (NORFOLK ISLAND A, AU) observed 1200 UTC 16 June 2019
Temperature: 14.0°C (57°F)
Dewpoint: 10.0°C (50°F) [RH = 77%]
Pressure (altimeter): 30.18 inches Hg (1022.0 mb)
Winds: from the E (80 degrees) at 6 MPH (5 knots; 2.6 m/s)
Visibility: 6 or more miles (10+ km)
Ceiling: at least 12,000 feet AGL
Clouds: scattered clouds at 3100 feet AGL
Weather: no significant weather observed at this time

METAR text: YSNF 161130Z AUTO 09006KT 9999 // SCT031 14/10 Q1022 RF00.0/000.0
Conditions at: YSNF (NORFOLK ISLAND A, AU) observed 1130 UTC 16 June 2019
Temperature: 14.0°C (57°F)
Dewpoint: 10.0°C (50°F) [RH = 77%]
Pressure (altimeter): 30.18 inches Hg (1022.0 mb)
Winds: from the E (90 degrees) at 7 MPH (6 knots; 3.1 m/s)
Visibility: 6 or more miles (10+ km)
Ceiling: at least 12,000 feet AGL
Clouds: scattered clouds at 3100 feet AGL
Weather: no significant weather observed at this time

METAR text: YSNF 161100Z AUTO 10007KT 9999 // NCD 15/10 Q1022
Conditions at: YSNF (NORFOLK ISLAND A, AU) observed 1100 UTC 16 June 2019
Temperature: 15.0°C (59°F)
Dewpoint: 10.0°C (50°F) [RH = 72%]
Pressure (altimeter): 30.18 inches Hg (1022.0 mb)
Winds: from the E (100 degrees) at 8 MPH (7 knots; 3.6 m/s)
Visibility: 6 or more miles (10+ km)
Ceiling: at least 12,000 feet AGL
Clouds: sky clear below 12,000 feet AGL
Weather: no significant weather observed at this time

METAR text: YSNF 161030Z AUTO 10007KT 9999 // NCD 15/10 Q1022 RF00.0/000.0
Conditions at: YSNF (NORFOLK ISLAND A, AU) observed 1030 UTC 16 June 2019
Temperature: 15.0°C (59°F)
Dewpoint: 10.0°C (50°F) [RH = 72%]
Pressure (altimeter): 30.18 inches Hg (1022.0 mb)
Winds: from the E (100 degrees) at 8 MPH (7 knots; 3.6 m/s)
Visibility: 6 or more miles (10+ km)
Ceiling: at least 12,000 feet AGL
Clouds: sky clear below 12,000 feet AGL
Weather: no significant weather observed at this time

METAR text: YSNF 161000Z AUTO 09006KT 9999 // NCD 14/10 Q1022 RF00.0/000.0
Conditions at: YSNF (NORFOLK ISLAND A, AU) observed 1000 UTC 16 June 2019
Temperature: 14.0°C (57°F)
Dewpoint: 10.0°C (50°F) [RH = 77%]
Pressure (altimeter): 30.18 inches Hg (1022.0 mb)
Winds: from the E (90 degrees) at 7 MPH (6 knots; 3.1 m/s)
Visibility: 6 or more miles (10+ km)
Ceiling: at least 12,000 feet AGL
Clouds: sky clear below 12,000 feet AGL
Weather: no significant weather observed at this time

METAR text: YSNF 160930Z AUTO 09007KT 9999 // NCD 15/10 Q1022 RF00.0/000.0
Conditions at: YSNF (NORFOLK ISLAND A, AU) observed 0930 UTC 16 June 2019
Temperature: 15.0°C (59°F)
Dewpoint: 10.0°C (50°F) [RH = 72%]
Pressure (altimeter): 30.18 inches Hg (1022.0 mb)
Winds: from the E (90 degrees) at 8 MPH (7 knots; 3.6 m/s)
Visibility: 6 or more miles (10+ km)
Ceiling: at least 12,000 feet AGL
Clouds: sky clear below 12,000 feet AGL
Weather: no significant weather observed at this time

METAR text: YSNF 160900Z AUTO 10007KT 9999 // NCD 15/10 Q1021 RF00.0/000.0
Conditions at: YSNF (NORFOLK ISLAND A, AU) observed 0900 UTC 16 June 2019
Temperature: 15.0°C (59°F)
Dewpoint: 10.0°C (50°F) [RH = 72%]
Pressure (altimeter): 30.15 inches Hg (1021.0 mb)
Winds: from the E (100 degrees) at 8 MPH (7 knots; 3.6 m/s)
Visibility: 6 or more miles (10+ km)
Ceiling: at least 12,000 feet AGL
Clouds: sky clear below 12,000 feet AGL
Weather: no significant weather observed at this time

METAR text: YSNF 160830Z AUTO 10007KT 9999 // NCD 15/10 Q1021 RF00.0/000.0
Conditions at: YSNF (NORFOLK ISLAND A, AU) observed 0830 UTC 16 June 2019
Temperature: 15.0°C (59°F)
Dewpoint: 10.0°C (50°F) [RH = 72%]
Pressure (altimeter): 30.15 inches Hg (1021.0 mb)
Winds: from the E (100 degrees) at 8 MPH (7 knots; 3.6 m/s)
Visibility: 6 or more miles (10+ km)
Ceiling: at least 12,000 feet AGL
Clouds: sky clear below 12,000 feet AGL
Weather: no significant weather observed at this time

METAR text: YSNF 160800Z AUTO 10006KT 9999 // NCD 15/10 Q1021 RF00.0/000.0
Conditions at: YSNF (NORFOLK ISLAND A, AU) observed 0800 UTC 16 June 2019
Temperature: 15.0°C (59°F)
Dewpoint: 10.0°C (50°F) [RH = 72%]
Pressure (altimeter): 30.15 inches Hg (1021.0 mb)
Winds: from the E (100 degrees) at 7 MPH (6 knots; 3.1 m/s)
Visibility: 6 or more miles (10+ km)
Ceiling: at least 12,000 feet AGL
Clouds: sky clear below 12,000 feet AGL
Weather: no significant weather observed at this time

METAR text: YSNF 160730Z AUTO 09006KT 9999 // NCD 15/09 Q1021 RF00.0/000.0
Conditions at: YSNF (NORFOLK ISLAND A, AU) observed 0730 UTC 16 June 2019
Temperature: 15.0°C (59°F)
Dewpoint: 9.0°C (48°F) [RH = 67%]
Pressure (altimeter): 30.15 inches Hg (1021.0 mb)
Winds: from the E (90 degrees) at 7 MPH (6 knots; 3.1 m/s)
Visibility: 6 or more miles (10+ km)
Ceiling: at least 12,000 feet AGL
Clouds: sky clear below 12,000 feet AGL
Weather: no significant weather observed at this time

METAR text: YSNF 160700Z AUTO 09006KT 9999 // NCD 15/10 Q1021
Conditions at: YSNF (NORFOLK ISLAND A, AU) observed 0700 UTC 16 June 2019
Temperature: 15.0°C (59°F)
Dewpoint: 10.0°C (50°F) [RH = 72%]
Pressure (altimeter): 30.15 inches Hg (1021.0 mb)
Winds: from the E (90 degrees) at 7 MPH (6 knots; 3.1 m/s)
Visibility: 6 or more miles (10+ km)
Ceiling: at least 12,000 feet AGL
Clouds: sky clear below 12,000 feet AGL
Weather: no significant weather observed at this time

METAR text: YSNF 160630Z AUTO 10006KT 9999 // NCD 15/10 Q1020 RF00.0/000.0
Conditions at: YSNF (NORFOLK ISLAND A, AU) observed 0630 UTC 16 June 2019
Temperature: 15.0°C (59°F)
Dewpoint: 10.0°C (50°F) [RH = 72%]
Pressure (altimeter): 30.12 inches Hg (1020.0 mb)
Winds: from the E (100 degrees) at 7 MPH (6 knots; 3.1 m/s)
Visibility: 6 or more miles (10+ km)
Ceiling: at least 12,000 feet AGL
Clouds: sky clear below 12,000 feet AGL
Weather: no significant weather observed at this time

METAR text: YSNF 160600Z AUTO 11006KT 9999 // NCD 16/10 Q1020 RF00.0/000.0
Conditions at: YSNF (NORFOLK ISLAND A, AU) observed 0600 UTC 16 June 2019
Temperature: 16.0°C (61°F)
Dewpoint: 10.0°C (50°F) [RH = 68%]
Pressure (altimeter): 30.12 inches Hg (1020.0 mb)
Winds: from the ESE (110 degrees) at 7 MPH (6 knots; 3.1 m/s)
Visibility: 6 or more miles (10+ km)
Ceiling: at least 12,000 feet AGL
Clouds: sky clear below 12,000 feet AGL
Weather: no significant weather observed at this time

METAR text: YSNF 160530Z AUTO 11006KT 9999 // NCD 17/10 Q1020 RF00.0/000.0
Conditions at: YSNF (NORFOLK ISLAND A, AU) observed 0530 UTC 16 June 2019
Temperature: 17.0°C (63°F)
Dewpoint: 10.0°C (50°F) [RH = 63%]
Pressure (altimeter): 30.12 inches Hg (1020.0 mb)
Winds: from the ESE (110 degrees) at 7 MPH (6 knots; 3.1 m/s)
Visibility: 6 or more miles (10+ km)
Ceiling: at least 12,000 feet AGL
Clouds: sky clear below 12,000 feet AGL
Weather: no significant weather observed at this time

METAR text: YSNF 160500Z AUTO 11007KT 9999 // NCD 17/11 Q1020 RF00.0/000.0
Conditions at: YSNF (NORFOLK ISLAND A, AU) observed 0500 UTC 16 June 2019
Temperature: 17.0°C (63°F)
Dewpoint: 11.0°C (52°F) [RH = 68%]
Pressure (altimeter): 30.12 inches Hg (1020.0 mb)
Winds: from the ESE (110 degrees) at 8 MPH (7 knots; 3.6 m/s)
Visibility: 6 or more miles (10+ km)
Ceiling: at least 12,000 feet AGL
Clouds: sky clear below 12,000 feet AGL
Weather: no significant weather observed at this time

METAR text: YSNF 160430Z AUTO 12008KT 9999 // NCD 18/11 Q1020 RF00.0/000.0
Conditions at: YSNF (NORFOLK ISLAND A, AU) observed 0430 UTC 16 June 2019
Temperature: 18.0°C (64°F)
Dewpoint: 11.0°C (52°F) [RH = 64%]
Pressure (altimeter): 30.12 inches Hg (1020.0 mb)
Winds: from the ESE (120 degrees) at 9 MPH (8 knots; 4.1 m/s)
Visibility: 6 or more miles (10+ km)
Ceiling: at least 12,000 feet AGL
Clouds: sky clear below 12,000 feet AGL
Weather: no significant weather observed at this time

METAR text: YSNF 160400Z AUTO 12008KT 9999 // NCD 18/10 Q1020 RF00.0/000.0
Conditions at: YSNF (NORFOLK ISLAND A, AU) observed 0400 UTC 16 June 2019
Temperature: 18.0°C (64°F)
Dewpoint: 10.0°C (50°F) [RH = 59%]
Pressure (altimeter): 30.12 inches Hg (1020.0 mb)
Winds: from the ESE (120 degrees) at 9 MPH (8 knots; 4.1 m/s)
Visibility: 6 or more miles (10+ km)
Ceiling: at least 12,000 feet AGL
Clouds: sky clear below 12,000 feet AGL
Weather: no significant weather observed at this time

METAR text: YSNF 160330Z AUTO 13009KT 9999 // NCD 18/11 Q1020 RF00.0/000.0
Conditions at: YSNF (NORFOLK ISLAND A, AU) observed 0330 UTC 16 June 2019
Temperature: 18.0°C (64°F)
Dewpoint: 11.0°C (52°F) [RH = 64%]
Pressure (altimeter): 30.12 inches Hg (1020.0 mb)
Winds: from the SE (130 degrees) at 10 MPH (9 knots; 4.6 m/s)
Visibility: 6 or more miles (10+ km)
Ceiling: at least 12,000 feet AGL
Clouds: sky clear below 12,000 feet AGL
Weather: no significant weather observed at this time

METAR text: YSNF 160300Z AUTO 12009KT 9999 // NCD 18/11 Q1020 RF00.0/000.0
Conditions at: YSNF (NORFOLK ISLAND A, AU) observed 0300 UTC 16 June 2019
Temperature: 18.0°C (64°F)
Dewpoint: 11.0°C (52°F) [RH = 64%]
Pressure (altimeter): 30.12 inches Hg (1020.0 mb)
Winds: from the ESE (120 degrees) at 10 MPH (9 knots; 4.6 m/s)
Visibility: 6 or more miles (10+ km)
Ceiling: at least 12,000 feet AGL
Clouds: sky clear below 12,000 feet AGL
Weather: no significant weather observed at this time

METAR text: YSNF 160230Z AUTO 12010KT 9999 // SCT024 18/12 Q1020 RF00.0/000.0
Conditions at: YSNF (NORFOLK ISLAND A, AU) observed 0230 UTC 16 June 2019
Temperature: 18.0°C (64°F)
Dewpoint: 12.0°C (54°F) [RH = 68%]
Pressure (altimeter): 30.12 inches Hg (1020.0 mb)
Winds: from the ESE (120 degrees) at 12 MPH (10 knots; 5.1 m/s)
Visibility: 6 or more miles (10+ km)
Ceiling: at least 12,000 feet AGL
Clouds: scattered clouds at 2400 feet AGL
Weather: no significant weather observed at this time

METAR text: YSNF 160200Z AUTO 11009KT 9999 // NCD 18/12 Q1020 RF00.0/000.0
Conditions at: YSNF (NORFOLK ISLAND A, AU) observed 0200 UTC 16 June 2019
Temperature: 18.0°C (64°F)
Dewpoint: 12.0°C (54°F) [RH = 68%]
Pressure (altimeter): 30.12 inches Hg (1020.0 mb)
Winds: from the ESE (110 degrees) at 10 MPH (9 knots; 4.6 m/s)
Visibility: 6 or more miles (10+ km)
Ceiling: at least 12,000 feet AGL
Clouds: sky clear below 12,000 feet AGL
Weather: no significant weather observed at this time

METAR text: YSNF 160130Z AUTO 11010KT 9999 // NCD 18/12 Q1020 RF00.0/000.0
Conditions at: YSNF (NORFOLK ISLAND A, AU) observed 0130 UTC 16 June 2019
Temperature: 18.0°C (64°F)
Dewpoint: 12.0°C (54°F) [RH = 68%]
Pressure (altimeter): 30.12 inches Hg (1020.0 mb)
Winds: from the ESE (110 degrees) at 12 MPH (10 knots; 5.1 m/s)
Visibility: 6 or more miles (10+ km)
Ceiling: at least 12,000 feet AGL
Clouds: sky clear below 12,000 feet AGL
Weather: no significant weather observed at this time

METAR text: YSNF 160100Z AUTO 12009KT 9999 // NCD 19/13 Q1020 RF00.0/000.0
Conditions at: YSNF (NORFOLK ISLAND A, AU) observed 0100 UTC 16 June 2019
Temperature: 19.0°C (66°F)
Dewpoint: 13.0°C (55°F) [RH = 68%]
Pressure (altimeter): 30.12 inches Hg (1020.0 mb)
Winds: from the ESE (120 degrees) at 10 MPH (9 knots; 4.6 m/s)
Visibility: 6 or more miles (10+ km)
Ceiling: at least 12,000 feet AGL
Clouds: sky clear below 12,000 feet AGL
Weather: no significant weather observed at this time

METAR text: YSNF 160030Z AUTO 13009KT //// // NCD 19/13 Q1020 RF00.0/000.0 PRESENT WEATHER SENSOR US
Conditions at: YSNF (NORFOLK ISLAND A, AU) observed 0030 UTC 16 June 2019
Temperature: 19.0°C (66°F)
Dewpoint: 13.0°C (55°F) [RH = 68%]
Pressure (altimeter): 30.12 inches Hg (1020.0 mb)
Winds: from the SE (130 degrees) at 10 MPH (9 knots; 4.6 m/s)
Visibility: missing
Ceiling: at least 12,000 feet AGL
Clouds: sky clear below 12,000 feet AGL
Weather: no significant weather observed at this time

METAR text: YSNF 160000Z AUTO 13009KT //// // NCD 18/13 Q1021 RF00.0/000.0 PRESENT WEATHER SENSOR US
Conditions at: YSNF (NORFOLK ISLAND A, AU) observed 0000 UTC 16 June 2019
Temperature: 18.0°C (64°F)
Dewpoint: 13.0°C (55°F) [RH = 73%]
Pressure (altimeter): 30.15 inches Hg (1021.0 mb)
Winds: from the SE (130 degrees) at 10 MPH (9 knots; 4.6 m/s)
Visibility: missing
Ceiling: at least 12,000 feet AGL
Clouds: sky clear below 12,000 feet AGL
Weather: no significant weather observed at this time

METAR text: YSNF 152330Z AUTO 13010KT //// // SCT023 19/13 Q1021 RF00.0/000.0 PRESENT WEATHER SENSOR US
Conditions at: YSNF (NORFOLK ISLAND A, AU) observed 2330 UTC 15 June 2019
Temperature: 19.0°C (66°F)
Dewpoint: 13.0°C (55°F) [RH = 68%]
Pressure (altimeter): 30.15 inches Hg (1021.0 mb)
Winds: from the SE (130 degrees) at 12 MPH (10 knots; 5.1 m/s)
Visibility: missing
Ceiling: at least 12,000 feet AGL
Clouds: scattered clouds at 2300 feet AGL
Weather: no significant weather observed at this time

Forecast for: AMD
Text: TAF AMD YSNF 170518Z 1706/1806 07010KT 9999 SCT025
Forecast period: 0600 to 1000 UTC 17 June 2019
Forecast type: FROM: standard forecast or significant change
Winds: from the ENE (70 degrees) at 12 MPH (10 knots; 5.1 m/s)
Visibility: 6 or more miles 10+ km)
Ceiling: at least 12,000 feet AGL
Clouds: scattered clouds at 2500 feet AGL
Weather: no significant weather forecast for this period
Text: FM171000 04010KT 9999 -SHRA BKN030
Forecast period: 1000 to 1500 UTC 17 June 2019
Forecast type: FROM: standard forecast or significant change
Winds: from the NE (40 degrees) at 12 MPH (10 knots; 5.1 m/s)
Visibility: 6 or more miles 10+ km)
Ceiling: 3000 feet AGL
Clouds: broken clouds at 3000 feet AGL
Weather: -SHRA  (light rain showers)
Text: FM171500 03015G25KT 9999 -SHRA SCT010 BKN020
Forecast period: 1500 UTC 17 June 2019 to 0600 UTC 18 June 2019
Forecast type: FROM: standard forecast or significant change
Winds: from the NNE (30 degrees) at 17 MPH (15 knots; 7.7 m/s)
gusting to 29 MPH (25 knots; 12.9 m/s)
Visibility: 6 or more miles 10+ km)
Ceiling: 2000 feet AGL
Clouds: scattered clouds at 1000 feet AGL
broken clouds at 2000 feet AGL
Weather: -SHRA  (light rain showers)
Text: TEMPO 1710/1806 3000 SHRA BKN010
Forecast period: 1000 UTC 17 June 2019 to 0600 UTC 18 June 2019
Forecast type: TEMPORARY: The following changes expected for less than half the time period
Visibility: 1.86 miles (2.99 km)
Ceiling: 1000 feet AGL
Clouds: broken clouds at 1000 feet AGL
Weather: SHRA  (rain showers)
Text: PROB30
Forecast period: 1600 UTC 17 June 2019 to 0600 UTC 18 June 2019
Forecast type: TEMPORARY: The following changes expected for less than half the time period
Winds: variable direction winds at 29 MPH (25 knots; 12.9 m/s)
gusting to 40 MPH (35 knots; 18.0 m/s)
Visibility: 0.62 miles (1.00 km)
Ceiling: 500 feet AGL
Clouds: broken clouds at 500 feet AGL
scattered clouds at 5000 feet AGL
Weather: TSRA  (rain associated with thunderstorm(s))